Time;durP1;ratioP1;P1;durP2;ratioP2;P2;SDS_P1;SDS_P2;PMS_P1;PMS_P2;Temp;Humidity;BMP_temperature;BMP_pressure;BME280_temperature;BME280_humidity;BME280_pressure;Samples;Min_cycle;Max_cycle;Signal;HPM_P1;HPM_P2
2021/06/13 00:01:16;;;;;;;10.95;4.00;;;;;;;13.36;65.95;100288.16;5015266;28;20455;-62
2021/06/13 00:03:41;;;;;;;11.50;4.07;;;;;;;13.28;66.57;100285.78;5014743;28;20029;-62
2021/06/13 00:06:07;;;;;;;9.98;4.50;;;;;;;13.15;68.86;100292.19;5015225;28;20042;-62
2021/06/13 00:08:32;;;;;;;11.13;4.60;;;;;;;13.16;67.60;100296.53;5015593;28;20034;-62
2021/06/13 00:10:58;;;;;;;15.43;4.72;;;;;;;13.13;66.94;100292.44;5015230;28;20030;-62
2021/06/13 00:13:24;;;;;;;12.02;4.55;;;;;;;13.05;69.10;100300.84;5015339;28;20380;-62
2021/06/13 00:15:50;;;;;;;11.48;4.47;;;;;;;13.00;67.93;100289.94;5014954;28;20048;-62
2021/06/13 00:18:16;;;;;;;11.98;5.03;;;;;;;12.97;67.97;100295.81;5015603;28;20034;-62
2021/06/13 00:20:41;;;;;;;8.50;4.47;;;;;;;12.96;67.71;100294.19;5015119;28;20046;-62
2021/06/13 00:23:07;;;;;;;12.32;5.38;;;;;;;12.87;67.76;100285.59;5014315;28;20396;-61
2021/06/13 00:25:32;;;;;;;9.45;4.72;;;;;;;12.88;68.87;100289.13;5015118;28;20067;-62
2021/06/13 00:27:58;;;;;;;9.02;4.85;;;;;;;12.80;69.12;100295.66;5015188;28;20033;-62
2021/06/13 00:30:24;;;;;;;9.35;5.13;;;;;;;12.80;68.81;100300.22;5013992;28;20469;-62
2021/06/13 00:32:49;;;;;;;15.40;5.10;;;;;;;12.77;68.37;100290.75;5014151;28;20054;-62
2021/06/13 00:35:15;;;;;;;12.75;5.15;;;;;;;12.76;69.94;100296.38;5015238;28;20030;-61
2021/06/13 00:37:41;;;;;;;11.50;5.60;;;;;;;12.84;69.54;100293.34;5015354;28;20052;-62
2021/06/13 00:40:07;;;;;;;11.02;5.35;;;;;;;12.71;69.07;100295.19;5014531;28;20495;-62
2021/06/13 00:42:32;;;;;;;16.33;5.80;;;;;;;12.60;69.00;100301.34;4997554;28;20112;-62
2021/06/13 00:44:58;;;;;;;11.25;5.65;;;;;;;12.59;69.33;100294.34;5013670;28;20041;-61
2021/06/13 00:47:23;;;;;;;11.77;5.45;;;;;;;12.70;68.70;100304.31;5014402;28;20045;-65
2021/06/13 00:49:49;;;;;;;11.80;5.65;;;;;;;12.67;68.93;100302.06;5015046;28;20432;-61
2021/06/13 00:52:14;;;;;;;14.88;5.75;;;;;;;12.59;69.37;100291.63;5014420;28;20042;-61
2021/06/13 00:54:40;;;;;;;15.07;6.15;;;;;;;12.55;69.18;100295.81;5013604;28;20037;-62
2021/06/13 00:57:06;;;;;;;15.63;6.22;;;;;;;12.46;69.61;100291.84;4980542;28;20030;-61
2021/06/13 00:59:31;;;;;;;13.98;6.32;;;;;;;12.52;70.25;100305.16;5014564;28;20496;-62
2021/06/13 01:01:56;;;;;;;8.43;5.50;;;;;;;12.66;70.50;100297.75;5013158;28;20069;-62
2021/06/13 01:04:22;;;;;;;16.20;6.50;;;;;;;12.65;69.91;100288.00;5014626;28;20025;-62
2021/06/13 01:07:04;;;;;;;12.95;5.97;;;;;;;12.61;71.99;100289.53;5014067;28;20050;-62
2021/06/13 01:09:32;;;;;;;12.85;6.38;;;;;;;12.52;70.95;100286.34;5014459;28;20022;-62
2021/06/13 01:12:18;;;;;;;16.33;6.13;;;;;;;12.43;69.98;100292.28;5014044;28;20041;-61
2021/06/13 01:15:08;;;;;;;13.05;6.40;;;;;;;12.33;70.55;100286.63;5013260;28;20424;-61
2021/06/13 01:17:40;;;;;;;12.17;5.83;;;;;;;12.26;71.66;100286.75;4979410;28;20125;-62
2021/06/13 01:20:23;;;;;;;13.07;6.93;;;;;;;12.26;71.81;100292.94;4961050;28;20272;-62
2021/06/13 01:23:20;;;;;;;14.93;7.00;;;;;;;12.27;70.72;100291.88;4994825;28;20049;-62
2021/06/13 01:26:03;;;;;;;16.50;7.20;;;;;;;12.22;71.66;100291.72;4993727;28;20058;-62
2021/06/13 01:28:53;;;;;;;15.48;6.78;;;;;;;12.25;70.50;100285.91;4994579;28;20022;-62
2021/06/13 01:31:19;;;;;;;16.30;6.95;;;;;;;12.07;70.94;100286.75;4987797;28;20038;-62
2021/06/13 01:33:46;;;;;;;15.60;7.47;;;;;;;12.07;71.66;100283.25;5012782;28;20491;-61
2021/06/13 01:36:12;;;;;;;15.43;7.82;;;;;;;12.08;71.82;100271.44;5012293;28;20404;-61
2021/06/13 01:38:37;;;;;;;14.93;7.95;;;;;;;12.02;71.13;100280.44;5012630;28;20036;-61
2021/06/13 01:41:05;;;;;;;15.13;7.68;;;;;;;11.91;73.20;100284.72;5012160;28;20314;-62
2021/06/13 01:43:30;;;;;;;13.07;7.60;;;;;;;11.83;71.88;100282.28;4996461;28;20527;-62
2021/06/13 01:45:55;;;;;;;11.90;7.72;;;;;;;11.71;72.38;100276.03;5004440;28;20031;-61
2021/06/13 01:48:22;;;;;;;17.50;7.25;;;;;;;11.77;71.77;100280.50;4994162;28;20018;-61
2021/06/13 01:50:47;;;;;;;17.20;8.00;;;;;;;11.66;72.41;100284.75;4993726;28;20035;-62
2021/06/13 01:53:13;;;;;;;18.40;7.97;;;;;;;11.64;73.45;100279.59;4992861;28;20085;-62
2021/06/13 01:55:45;;;;;;;13.27;7.30;;;;;;;11.56;72.78;100279.09;4992194;28;20232;-62
2021/06/13 01:58:12;;;;;;;12.00;7.55;;;;;;;11.54;72.97;100271.25;4993943;28;20030;-62
2021/06/13 02:00:37;;;;;;;18.02;8.10;;;;;;;11.53;73.24;100268.78;4998030;28;20046;-61
2021/06/13 02:03:03;;;;;;;17.70;8.15;;;;;;;11.55;73.96;100277.44;4995911;28;20026;-61
2021/06/13 02:05:29;;;;;;;13.48;8.32;;;;;;;11.56;72.97;100279.09;5013040;28;20033;-61
2021/06/13 02:07:54;;;;;;;15.63;8.43;;;;;;;11.47;73.11;100275.88;5012053;28;20357;-61
2021/06/13 02:10:20;;;;;;;17.13;8.57;;;;;;;11.49;75.80;100279.16;5011660;28;20057;-61
2021/06/13 02:12:46;;;;;;;13.85;8.85;;;;;;;11.40;73.66;100281.28;5012045;28;20026;-61
2021/06/13 02:15:12;;;;;;;11.90;7.90;;;;;;;11.44;73.50;100276.31;4995707;28;20022;-61
2021/06/13 02:17:42;;;;;;;17.23;8.27;;;;;;;11.37;73.73;100287.09;5013279;28;20041;-62
2021/06/13 02:20:08;;;;;;;14.95;7.78;;;;;;;11.40;73.63;100289.34;5011525;28;20029;-61
2021/06/13 02:22:34;;;;;;;14.82;8.93;;;;;;;11.40;74.88;100283.97;5011890;28;20037;-61
2021/06/13 02:24:59;;;;;;;20.23;8.98;;;;;;;11.24;74.75;100289.94;5011833;28;20022;-61
2021/06/13 02:27:26;;;;;;;15.05;8.68;;;;;;;11.24;74.29;100289.94;5011438;28;20129;-62
2021/06/13 02:29:51;;;;;;;15.00;8.20;;;;;;;11.24;74.39;100295.28;5012022;28;20393;-61
2021/06/13 02:32:17;;;;;;;19.67;9.10;;;;;;;11.18;74.54;100290.78;5012636;28;20034;-62
2021/06/13 02:34:47;;;;;;;16.27;9.15;;;;;;;11.14;74.60;100294.97;5013006;28;20026;-61
2021/06/13 02:37:12;;;;;;;20.50;9.68;;;;;;;11.10;74.78;100297.25;5011279;28;20048;-61
2021/06/13 02:39:38;;;;;;;15.68;8.88;;;;;;;11.07;74.87;100297.72;5012074;28;20022;-62
2021/06/13 02:42:04;;;;;;;14.25;9.07;;;;;;;11.08;74.94;100298.53;5012416;28;20469;-61
2021/06/13 02:44:29;;;;;;;16.25;8.77;;;;;;;11.00;76.40;100296.94;5013106;28;20022;-61
2021/06/13 02:46:54;;;;;;;18.83;8.50;;;;;;;11.02;75.21;100295.69;5012453;28;20034;-61
2021/06/13 02:49:20;;;;;;;18.02;8.68;;;;;;;10.99;75.02;100301.50;5013005;28;20408;-61
2021/06/13 02:52:25;;;;;;;20.05;8.60;;;;;;;10.90;76.78;100300.13;5012444;28;20484;-61
2021/06/13 02:54:52;;;;;;;13.93;8.65;;;;;;;10.95;75.68;100300.28;4992581;28;20042;-61
2021/06/13 02:57:24;;;;;;;18.67;8.05;;;;;;;10.84;76.75;100297.50;5011295;28;20049;-62
2021/06/13 02:59:56;;;;;;;19.02;8.63;;;;;;;10.77;76.29;100300.22;5011612;28;20042;-62
2021/06/13 03:02:26;;;;;;;20.90;9.05;;;;;;;10.60;77.08;100296.41;4995737;28;20038;-62
2021/06/13 03:04:51;;;;;;;19.05;9.70;;;;;;;10.52;77.47;100301.00;4995727;28;20021;-61
2021/06/13 03:07:17;;;;;;;19.38;9.88;;;;;;;10.52;77.65;100295.63;5011169;28;20045;-61
2021/06/13 03:09:43;;;;;;;17.20;9.50;;;;;;;10.57;77.24;100311.06;5011766;28;20109;-61
2021/06/13 03:12:09;;;;;;;22.52;9.90;;;;;;;10.54;77.33;100306.16;5012086;28;20138;-62
2021/06/13 03:14:35;;;;;;;21.42;9.93;;;;;;;10.58;77.28;100308.19;5011459;28;20030;-61
2021/06/13 03:17:00;;;;;;;17.63;9.93;;;;;;;10.54;77.12;100309.66;4994840;28;20045;-62
2021/06/13 03:19:27;;;;;;;16.08;9.40;;;;;;;10.60;76.54;100312.50;4994955;28;20476;-61
2021/06/13 03:21:52;;;;;;;18.13;9.30;;;;;;;10.66;76.62;100317.00;5012305;28;20038;-61
2021/06/13 03:24:18;;;;;;;21.42;9.38;;;;;;;10.66;76.57;100322.34;4994045;28;20290;-61
2021/06/13 03:26:44;;;;;;;21.40;9.63;;;;;;;10.68;76.63;100317.59;5010084;28;20125;-62
2021/06/13 03:29:09;;;;;;;15.93;9.27;;;;;;;10.79;75.98;100319.59;5010948;28;20108;-61
2021/06/13 03:31:35;;;;;;;19.77;9.57;;;;;;;10.91;75.54;100330.47;5011085;28;20042;-61
2021/06/13 03:34:00;;;;;;;16.05;9.07;;;;;;;11.12;74.59;100326.56;4995144;28;20041;-61
2021/06/13 03:36:26;;;;;;;15.15;8.70;;;;;;;11.10;74.75;100331.31;5010832;28;20480;-61
2021/06/13 03:38:51;;;;;;;16.15;9.20;;;;;;;11.02;74.46;100333.25;5011484;28;20041;-61
2021/06/13 03:41:18;;;;;;;15.48;8.95;;;;;;;10.88;75.48;100336.22;5010844;28;20392;-61
2021/06/13 03:43:43;;;;;;;17.15;9.00;;;;;;;11.04;74.50;100333.03;5012340;28;20041;-61
2021/06/13 03:46:09;;;;;;;18.02;9.13;;;;;;;11.07;75.05;100339.81;5010486;28;20424;-62
2021/06/13 03:48:35;;;;;;;16.30;9.02;;;;;;;10.91;74.78;100338.50;5015087;28;20053;-61
2021/06/13 03:51:01;;;;;;;17.40;8.60;;;;;;;10.90;75.08;100340.34;5015450;28;20069;-60
2021/06/13 03:53:27;;;;;;;20.85;9.18;;;;;;;10.87;75.38;100343.47;5015886;28;20097;-61
2021/06/13 03:55:53;;;;;;;15.80;8.32;;;;;;;10.78;75.48;100355.47;5014132;28;20034;-61
2021/06/13 03:58:22;;;;;;;20.48;9.18;;;;;;;10.48;76.88;100347.22;5014628;28;20109;-61
2021/06/13 04:00:48;;;;;;;12.55;8.57;;;;;;;10.55;76.72;100351.50;4997511;28;20081;-61
2021/06/13 04:03:14;;;;;;;14.38;8.15;;;;;;;10.87;76.13;100356.06;5014614;28;20026;-61
2021/06/13 04:05:40;;;;;;;14.73;8.73;;;;;;;10.82;75.40;100354.03;5014700;28;20029;-61
2021/06/13 04:08:07;;;;;;;19.00;9.10;;;;;;;10.96;75.20;100350.22;4994714;28;20058;-61
2021/06/13 04:10:32;;;;;;;16.65;9.00;;;;;;;11.23;74.11;100363.41;4990079;28;20035;-61
2021/06/13 04:12:57;;;;;;;18.80;9.55;;;;;;;11.18;74.30;100365.94;4976271;28;20119;-61
2021/06/13 04:15:24;;;;;;;14.38;8.52;;;;;;;11.24;74.19;100362.38;4974922;28;20417;-61
2021/06/13 04:17:50;;;;;;;15.50;9.50;;;;;;;11.41;73.71;100362.66;4975324;28;20109;-61
2021/06/13 04:20:15;;;;;;;16.48;7.95;;;;;;;11.83;71.23;100366.38;4958660;28;20429;-61
2021/06/13 04:22:41;;;;;;;14.00;8.05;;;;;;;12.21;70.68;100373.44;4943061;28;20058;-61
2021/06/13 04:25:09;;;;;;;17.83;8.13;;;;;;;14.86;60.98;100378.00;4975849;28;20194;-62
2021/06/13 04:27:35;;;;;;;15.57;7.43;;;;;;;15.70;57.29;100381.81;4973938;28;20070;-61
2021/06/13 04:30:00;;;;;;;14.48;7.90;;;;;;;14.42;61.60;100388.47;4975936;28;20026;-61
2021/06/13 04:32:26;;;;;;;13.75;7.03;;;;;;;13.93;62.36;100390.69;4995216;28;20089;-62
2021/06/13 04:34:51;;;;;;;17.80;7.00;;;;;;;13.24;64.79;100397.66;4994337;28;20143;-61
2021/06/13 04:37:17;;;;;;;15.93;7.50;;;;;;;12.86;67.00;100396.97;4995292;28;20038;-61
2021/06/13 04:39:43;;;;;;;15.13;7.80;;;;;;;12.61;68.05;100407.06;4995506;28;20085;-62
2021/06/13 04:42:08;;;;;;;14.85;8.02;;;;;;;12.53;69.26;100400.13;4995032;28;20069;-62
2021/06/13 04:44:34;;;;;;;14.02;7.93;;;;;;;12.48;69.16;100405.34;4995272;28;20030;-61
2021/06/13 04:47:00;;;;;;;17.25;8.05;;;;;;;12.60;68.48;100411.59;4994919;28;20042;-62
2021/06/13 04:49:25;;;;;;;15.18;8.13;;;;;;;12.92;67.88;100414.06;4995473;28;20018;-62
2021/06/13 04:51:53;;;;;;;12.43;8.20;;;;;;;12.82;68.30;100406.56;4994906;28;20041;-61
2021/06/13 04:54:32;;;;;;;16.13;8.45;;;;;;;12.94;67.50;100418.19;4961960;28;20395;-61
2021/06/13 04:57:15;;;;;;;17.48;8.13;;;;;;;13.74;64.98;100426.91;4993460;28;20038;-61
2021/06/13 04:59:40;;;;;;;15.70;8.15;;;;;;;13.82;65.17;100421.16;4992649;28;20492;-62
2021/06/13 05:02:05;;;;;;;12.07;7.07;;;;;;;14.33;64.36;100416.88;4993501;28;20043;-62
2021/06/13 05:04:31;;;;;;;10.25;7.05;;;;;;;14.84;60.91;100420.59;4993837;28;20026;-61
2021/06/13 05:06:56;;;;;;;17.35;7.47;;;;;;;17.44;53.30;100427.91;4994417;28;20046;-62
2021/06/13 05:09:22;;;;;;;9.38;6.25;;;;;;;19.71;46.47;100425.00;4993682;28;20026;-62
2021/06/13 05:11:47;;;;;;;17.05;6.97;;;;;;;19.56;47.01;100423.88;4994557;28;20480;-62
2021/06/13 05:14:13;;;;;;;18.30;6.97;;;;;;;20.58;43.78;100422.03;4994998;28;20058;-62
2021/06/13 05:16:41;;;;;;;13.95;6.40;;;;;;;21.82;41.59;100433.72;4994425;28;20035;-62
2021/06/13 05:19:06;;;;;;;11.15;5.43;;;;;;;21.93;40.49;100435.22;4994772;28;20029;-63
2021/06/13 05:21:32;;;;;;;11.50;6.10;;;;;;;19.79;45.68;100438.03;4994102;28;20034;-63
2021/06/13 05:24:00;;;;;;;12.55;6.80;;;;;;;18.75;48.73;100436.31;4994531;28;20026;-63
2021/06/13 05:26:26;;;;;;;14.13;6.47;;;;;;;19.44;46.40;100436.94;4993984;28;20492;-62
2021/06/13 05:28:51;;;;;;;11.85;6.53;;;;;;;22.10;40.47;100438.31;4994613;28;20037;-63
2021/06/13 05:31:17;;;;;;;15.48;6.35;;;;;;;21.76;40.89;100447.38;4994167;28;20026;-60
2021/06/13 05:33:42;;;;;;;18.40;6.93;;;;;;;22.77;38.80;100453.94;4994576;28;20037;-61
2021/06/13 05:36:08;;;;;;;11.63;6.40;;;;;;;22.11;39.61;100459.03;4993892;28;20612;-61
2021/06/13 05:38:33;;;;;;;14.95;6.30;;;;;;;23.19;37.95;100455.00;4994209;28;20530;-61
2021/06/13 05:40:59;;;;;;;12.90;6.18;;;;;;;22.58;39.11;100462.09;4993812;28;20042;-61
2021/06/13 05:43:24;;;;;;;12.80;6.63;;;;;;;23.29;37.21;100456.75;4994262;28;20042;-61
2021/06/13 05:45:49;;;;;;;12.90;6.00;;;;;;;24.20;37.02;100457.09;5008681;28;20065;-61
2021/06/13 05:48:15;;;;;;;16.55;6.50;;;;;;;23.50;36.53;100465.47;4992910;28;20030;-61
2021/06/13 05:50:41;;;;;;;13.50;6.72;;;;;;;22.26;38.68;100476.41;4993761;28;20034;-61
2021/06/13 05:53:07;;;;;;;15.73;6.30;;;;;;;23.10;37.28;100473.19;4993955;28;20022;-61
2021/06/13 05:55:32;;;;;;;12.18;5.80;;;;;;;22.31;39.61;100479.88;4993883;28;20034;-61
2021/06/13 05:57:58;;;;;;;19.25;6.72;;;;;;;23.70;36.87;100481.53;4994029;28;20088;-61
2021/06/13 06:00:33;;;;;;;15.15;6.82;;;;;;;21.70;40.47;100481.28;4993542;28;20042;-61
2021/06/13 06:02:59;;;;;;;16.95;6.38;;;;;;;23.32;37.05;100497.22;4994027;28;20025;-61
2021/06/13 06:05:24;;;;;;;15.35;6.30;;;;;;;22.36;38.67;100498.13;4993484;28;20409;-62
2021/06/13 06:07:50;;;;;;;14.27;6.40;;;;;;;23.04;37.27;100497.06;4993848;28;20089;-62
2021/06/13 06:10:16;;;;;;;14.95;6.53;;;;;;;23.79;35.72;100496.19;5008651;28;20033;-62
2021/06/13 06:12:45;;;;;;;18.55;6.18;;;;;;;24.67;35.30;100498.94;5013559;28;20034;-62
2021/06/13 06:15:15;;;;;;;16.90;6.38;;;;;;;25.05;33.75;100498.66;5013028;28;20021;-62
2021/06/13 06:17:41;;;;;;;16.05;6.50;;;;;;;24.40;34.78;100504.41;5013508;28;20430;-62
2021/06/13 06:20:07;;;;;;;15.93;6.53;;;;;;;25.82;32.09;100505.91;5012948;28;20018;-63
2021/06/13 06:22:32;;;;;;;15.32;5.95;;;;;;;25.73;32.49;100496.78;5013516;28;20109;-60
2021/06/13 06:24:58;;;;;;;14.88;6.35;;;;;;;24.80;34.27;100497.28;5012173;28;20025;-62
2021/06/13 06:27:23;;;;;;;16.90;6.65;;;;;;;22.94;37.24;100503.44;5012673;28;20046;-63
2021/06/13 06:29:49;;;;;;;18.58;6.60;;;;;;;24.63;33.93;100503.41;5013149;28;20034;-63
2021/06/13 06:32:14;;;;;;;17.38;6.65;;;;;;;24.81;33.26;100503.56;5011479;28;20029;-62
2021/06/13 06:34:40;;;;;;;12.77;6.00;;;;;;;26.29;31.79;100513.78;5013064;28;20022;-62
2021/06/13 06:37:05;;;;;;;15.45;6.13;;;;;;;24.16;33.73;100513.59;5012658;28;20038;-60
2021/06/13 06:39:31;;;;;;;14.82;6.13;;;;;;;23.57;35.61;100509.66;5013078;28;20049;-60
2021/06/13 06:41:56;;;;;;;18.95;6.60;;;;;;;23.47;34.94;100524.31;5012686;28;20038;-60
2021/06/13 06:44:22;;;;;;;15.50;6.43;;;;;;;22.24;37.53;100506.75;5013183;28;20030;-60
2021/06/13 06:46:47;;;;;;;17.65;6.38;;;;;;;22.89;36.57;100516.34;5012466;28;20030;-62
2021/06/13 06:49:13;;;;;;;16.30;6.55;;;;;;;21.53;38.93;100519.06;5012965;28;20076;-62
2021/06/13 06:51:38;;;;;;;19.40;6.55;;;;;;;21.54;39.63;100520.69;5012488;28;20038;-60
2021/06/13 06:54:04;;;;;;;14.60;6.20;;;;;;;22.93;35.65;100523.66;5011522;28;20033;-62
2021/06/13 06:56:29;;;;;;;16.30;6.43;;;;;;;23.47;35.17;100524.31;5012563;28;20113;-62
2021/06/13 06:58:55;;;;;;;15.00;5.95;;;;;;;23.31;35.77;100520.97;5012741;28;20523;-62
2021/06/13 07:01:20;;;;;;;16.55;6.13;;;;;;;24.62;32.69;100529.19;5012564;28;20042;-62
2021/06/13 07:03:46;;;;;;;14.63;5.90;;;;;;;25.05;31.78;100530.78;5012845;28;20057;-62
2021/06/13 07:06:11;;;;;;;16.48;6.20;;;;;;;23.86;34.57;100524.00;5012455;28;20042;-62
2021/06/13 07:08:37;;;;;;;19.17;6.38;;;;;;;22.48;37.24;100528.59;5012799;28;20037;-62
2021/06/13 07:11:02;;;;;;;19.85;6.72;;;;;;;24.55;33.79;100531.53;5012445;28;20042;-62
2021/06/13 07:13:28;;;;;;;17.17;6.72;;;;;;;23.84;35.64;100526.22;5011592;28;20025;-62
2021/06/13 07:15:53;;;;;;;15.57;6.03;;;;;;;24.10;35.37;100531.25;5012659;28;20073;-62
2021/06/13 07:18:19;;;;;;;15.27;6.40;;;;;;;27.54;29.34;100535.44;5012889;28;20026;-62
2021/06/13 07:20:44;;;;;;;16.05;5.88;;;;;;;24.48;32.59;100529.19;5012293;28;20038;-61
2021/06/13 07:23:09;;;;;;;15.45;6.10;;;;;;;23.42;35.05;100532.59;5015184;28;20022;-61
2021/06/13 07:25:35;;;;;;;15.27;6.30;;;;;;;19.88;42.32;100539.78;5016103;28;20046;-61
2021/06/13 07:28:00;;;;;;;21.73;7.28;;;;;;;21.20;40.41;100542.44;5016349;28;20034;-61
2021/06/13 07:30:26;;;;;;;19.63;6.38;;;;;;;24.64;33.83;100540.66;5016049;28;20030;-61
2021/06/13 07:32:52;;;;;;;15.93;6.18;;;;;;;20.02;42.27;100546.31;5016296;28;20078;-62
2021/06/13 07:35:18;;;;;;;17.55;6.82;;;;;;;21.40;39.35;100547.00;5015999;28;20160;-61
2021/06/13 07:37:44;;;;;;;20.20;7.20;;;;;;;16.94;50.30;100532.00;5016119;28;20495;-62
2021/06/13 07:40:10;;;;;;;17.90;6.88;;;;;;;18.64;46.66;100537.78;5015810;28;20033;-63
2021/06/13 07:42:35;;;;;;;15.65;6.18;;;;;;;18.36;45.66;100549.03;4998546;28;20022;-62
2021/06/13 07:45:00;;;;;;;16.80;6.22;;;;;;;18.60;46.00;100544.03;5015719;28;20026;-63
2021/06/13 07:47:28;;;;;;;14.07;5.82;;;;;;;18.41;45.64;100546.34;5015928;28;20037;-63
2021/06/13 07:49:53;;;;;;;16.23;5.90;;;;;;;18.82;44.46;100560.16;4998620;28;20428;-62
2021/06/13 07:52:19;;;;;;;18.02;5.80;;;;;;;19.02;44.03;100563.00;5015608;28;20038;-62
2021/06/13 07:54:44;;;;;;;16.27;5.75;;;;;;;19.06;44.45;100571.41;5016067;28;20045;-62
2021/06/13 07:57:10;;;;;;;13.75;5.70;;;;;;;18.36;45.70;100557.19;5015391;28;20037;-61
2021/06/13 07:59:36;;;;;;;17.35;5.68;;;;;;;18.58;45.82;100563.28;5015660;28;20539;-62
2021/06/13 08:02:03;;;;;;;16.60;6.20;;;;;;;19.06;43.94;100568.69;5015426;28;20444;-62
2021/06/13 08:04:34;;;;;;;15.50;5.88;;;;;;;18.53;45.29;100569.50;5015668;28;20018;-62
2021/06/13 08:07:00;;;;;;;16.38;6.05;;;;;;;18.11;46.71;100569.50;4998383;28;20046;-62
2021/06/13 08:09:25;;;;;;;22.15;6.60;;;;;;;18.10;47.35;100571.38;5015626;28;20468;-63
2021/06/13 08:11:51;;;;;;;14.80;5.88;;;;;;;18.68;45.15;100576.91;5015308;28;20045;-63
2021/06/13 08:14:16;;;;;;;21.88;5.97;;;;;;;18.45;45.86;100577.34;5015285;28;20388;-62
2021/06/13 08:16:42;;;;;;;18.70;5.72;;;;;;;18.81;45.37;100563.97;5015216;28;20460;-62
2021/06/13 08:19:07;;;;;;;16.73;6.07;;;;;;;19.12;44.70;100560.31;5015689;28;20037;-62
2021/06/13 08:21:33;;;;;;;15.88;5.20;;;;;;;20.61;40.58;100557.66;5013787;28;20119;-62
2021/06/13 08:23:59;;;;;;;15.45;5.40;;;;;;;23.52;34.43;100573.50;5015377;28;20372;-62
2021/06/13 08:26:24;;;;;;;18.88;5.72;;;;;;;24.14;32.65;100567.03;5015195;28;20092;-62
2021/06/13 08:28:50;;;;;;;13.88;5.20;;;;;;;24.38;31.60;100572.38;5015516;28;20022;-63
2021/06/13 08:31:15;;;;;;;13.50;4.97;;;;;;;23.95;32.47;100569.84;5015183;28;20448;-61
2021/06/13 08:33:41;;;;;;;14.77;5.43;;;;;;;26.36;28.30;100574.59;5015204;28;20022;-63
2021/06/13 08:36:06;;;;;;;14.70;4.93;;;;;;;25.25;30.27;100567.94;5014902;28;20034;-61
2021/06/13 08:38:32;;;;;;;13.88;4.55;;;;;;;25.56;29.35;100568.88;5015330;28;20109;-61
2021/06/13 08:40:57;;;;;;;15.35;5.60;;;;;;;24.38;32.43;100561.41;5013345;28;20042;-61
2021/06/13 08:43:23;;;;;;;17.55;5.80;;;;;;;21.76;35.49;100561.19;5015200;28;20026;-61
2021/06/13 08:45:48;;;;;;;17.33;5.30;;;;;;;22.85;34.16;100559.88;4997049;28;20045;-62
2021/06/13 08:48:14;;;;;;;12.52;5.45;;;;;;;25.09;30.75;100565.50;5015014;28;20081;-62
2021/06/13 08:50:40;;;;;;;17.17;4.95;;;;;;;24.87;31.15;100560.75;5014736;28;20030;-62
2021/06/13 08:53:06;;;;;;;13.55;5.78;;;;;;;24.81;30.88;100563.91;5013860;28;20025;-62
2021/06/13 08:55:32;;;;;;;13.52;5.70;;;;;;;25.42;29.67;100557.13;5014503;28;20041;-62
2021/06/13 08:57:58;;;;;;;14.93;5.60;;;;;;;23.48;32.97;100566.97;5014912;28;20044;-62
2021/06/13 09:00:25;;;;;;;15.18;5.25;;;;;;;24.22;32.12;100558.97;5012965;28;20042;-62
2021/06/13 09:02:52;;;;;;;18.23;6.03;;;;;;;23.75;32.67;100549.09;5013751;28;20088;-62
2021/06/13 09:05:19;;;;;;;14.30;5.65;;;;;;;23.24;32.33;100550.66;5013054;28;20018;-62
2021/06/13 09:07:56;;;;;;;15.50;5.57;;;;;;;23.95;31.48;100556.97;5013355;28;20468;-62
2021/06/13 09:10:24;;;;;;;14.48;5.00;;;;;;;24.21;31.16;100562.81;5013116;28;20052;-62
2021/06/13 09:12:52;;;;;;;15.80;5.18;;;;;;;26.09;28.81;100569.28;5014483;28;20025;-62
2021/06/13 09:15:17;;;;;;;12.73;5.05;;;;;;;25.92;28.76;100559.78;5012808;28;20030;-62
2021/06/13 09:17:44;;;;;;;14.05;5.38;;;;;;;25.46;29.12;100565.53;5014827;28;20018;-62
2021/06/13 09:20:20;;;;;;;18.50;5.10;;;;;;;25.20;28.37;100565.31;5014132;28;20037;-62
2021/06/13 09:23:11;;;;;;;15.02;5.43;;;;;;;24.42;29.49;100556.97;5013279;28;20033;-62
2021/06/13 09:25:40;;;;;;;20.63;5.18;;;;;;;25.16;30.00;100554.97;5013878;28;20117;-62
2021/06/13 09:28:17;;;;;;;12.38;5.30;;;;;;;24.94;29.20;100557.59;5013179;28;20034;-62
2021/06/13 09:30:47;;;;;;;14.50;5.15;;;;;;;22.93;32.36;100551.00;5013889;28;20504;-63
2021/06/13 09:33:21;;;;;;;22.13;5.43;;;;;;;23.58;31.72;100549.59;5013227;28;20026;-62
2021/06/13 09:35:49;;;;;;;16.40;5.35;;;;;;;24.49;30.31;100557.41;5013738;28;20399;-62
2021/06/13 09:38:18;;;;;;;17.23;5.18;;;;;;;25.21;29.57;100555.94;5013928;28;20030;-62
2021/06/13 09:40:49;;;;;;;16.40;5.68;;;;;;;25.48;29.32;100560.56;5013742;28;20048;-62
2021/06/13 09:43:23;;;;;;;11.63;4.93;;;;;;;25.50;30.64;100552.81;5014067;28;20060;-60
2021/06/13 09:45:54;;;;;;;16.55;5.68;;;;;;;25.40;30.47;100551.94;5013070;28;20034;-60
2021/06/13 09:48:19;;;;;;;16.17;5.65;;;;;;;23.01;33.26;100552.31;5013665;28;20109;-61
2021/06/13 09:50:52;;;;;;;15.70;5.53;;;;;;;23.66;32.31;100551.66;5013652;28;20045;-61
2021/06/13 09:53:22;;;;;;;14.63;4.95;;;;;;;24.22;32.71;100550.75;5012552;28;20040;-60
2021/06/13 09:55:51;;;;;;;13.43;5.80;;;;;;;26.21;29.58;100548.34;5012039;28;20088;-60
2021/06/13 09:58:16;;;;;;;;;;;;;;;25.91;30.33;100551.84;5012863;28;20033;-60
2021/06/13 10:00:42;;;;;;;16.85;6.03;;;;;;;25.51;31.86;100548.94;5013034;28;20430;-61
2021/06/13 10:03:24;;;;;;;16.38;7.55;;;;;;;24.97;30.60;100546.81;5013470;28;20026;-60
2021/06/13 10:05:57;;;;;;;19.33;6.45;;;;;;;24.58;31.80;100541.88;5013207;28;20033;-62
2021/06/13 10:08:25;;;;;;;18.98;6.13;;;;;;;23.24;33.15;100547.91;5013489;28;20036;-61
2021/06/13 10:10:51;;;;;;;14.93;6.95;;;;;;;22.74;36.48;100547.41;5011818;28;20432;-62
2021/06/13 10:13:17;;;;;;;14.65;6.35;;;;;;;21.91;36.04;100541.13;4995992;28;20527;-61
2021/06/13 10:15:44;;;;;;;13.00;5.25;;;;;;;21.20;38.91;100542.44;5012862;28;20045;-61
2021/06/13 10:18:12;;;;;;;13.32;6.20;;;;;;;23.08;35.22;100535.56;5012428;28;20037;-61
2021/06/13 10:20:38;;;;;;;14.45;5.35;;;;;;;23.80;32.78;100541.59;5011961;28;20121;-61
2021/06/13 10:23:04;;;;;;;17.15;5.20;;;;;;;21.01;36.53;100539.53;5012009;28;20675;-61
2021/06/13 10:25:30;;;;;;;15.13;6.80;;;;;;;22.20;35.73;100532.19;5012521;28;20092;-61
2021/06/13 10:27:57;;;;;;;27.20;9.55;;;;;;;23.99;31.86;100538.84;5013161;28;20040;-61
2021/06/13 10:30:22;;;;;;;15.57;5.40;;;;;;;23.37;32.63;100538.16;5011845;28;20046;-62
2021/06/13 10:32:48;;;;;;;12.25;5.88;;;;;;;24.55;31.32;100539.75;5012115;28;20018;-61
2021/06/13 10:35:13;;;;;;;15.30;5.60;;;;;;;24.29;31.36;100533.94;4995075;28;20029;-62
2021/06/13 10:37:39;;;;;;;14.82;6.80;;;;;;;24.08;31.67;100531.53;5012098;28;20022;-61
2021/06/13 10:40:05;;;;;;;16.83;7.95;;;;;;;23.81;31.64;100532.28;5012721;28;20026;-62
2021/06/13 10:42:30;;;;;;;22.52;10.32;;;;;;;23.83;31.87;100524.56;5012943;28;20268;-62
2021/06/13 10:44:58;;;;;;;13.88;4.88;;;;;;;23.87;31.06;100520.13;4995464;28;20026;-62
2021/06/13 10:47:26;;;;;;;15.73;5.90;;;;;;;24.33;30.98;100519.28;5011185;28;20451;-61
2021/06/13 10:49:54;;;;;;;16.95;4.85;;;;;;;25.00;29.31;100519.91;5012884;28;20526;-61
2021/06/13 10:52:20;;;;;;;16.10;5.40;;;;;;;23.60;29.66;100520.00;5012500;28;20377;-61
2021/06/13 10:54:51;;;;;;;16.75;5.43;;;;;;;21.97;34.51;100518.97;5012768;28;20106;-61
2021/06/13 10:57:17;;;;;;;15.20;5.78;;;;;;;19.91;38.25;100513.94;5013247;28;20096;-61
2021/06/13 10:59:44;;;;;;;13.75;4.90;;;;;;;22.10;35.14;100517.50;5016773;28;20038;-61
2021/06/13 11:02:11;;;;;;;16.23;5.60;;;;;;;23.38;33.15;100515.16;5016381;28;20120;-62
2021/06/13 11:04:43;;;;;;;18.88;6.25;;;;;;;22.60;33.15;100514.53;5016930;28;20439;-62
2021/06/13 11:07:09;;;;;;;18.85;6.00;;;;;;;22.53;35.50;100509.41;5016167;28;20042;-62
2021/06/13 11:12:48;;;;;;;15.25;4.82;;;;;;;24.49;31.43;100506.16;5016500;28;20038;-62
2021/06/13 11:15:41;;;;;;;15.43;5.20;;;;;;;24.85;30.41;100510.09;5016431;28;20388;-62
2021/06/13 11:18:13;;;;;;;16.35;5.45;;;;;;;25.01;29.75;100511.38;5013931;28;20400;-62
2021/06/13 11:23:23;;;;;;;18.27;5.37;;;;;;;22.46;33.98;100506.22;5016633;28;20030;-62